Main page
METAR-TAF:

METAR-TAF

Airports :

Oslo Airport. Gardermoen

Oslo, Norway

latitude: 60-12N, longitude: 011-05E, elevation: 208 m

Current weather observation

The report was made 32 minutes ago, at 09:50 UTC
Wind 8 kt from the Northeast, varying between North and East
Temperature -1°C
Humidity 80%
Pressure 1040 hPa
Visibility 10 km or more
Broken clouds at a height of 1400 ft
showers in vicinity

METAR: ENGM 190950Z 04008KT 360V080 9999 VCSH BKN014 M01/M04 Q1040 TEMPO BKN016

Time: 11:22 (10:22 UTC)

Forecast

Forecast valid from 19 at 06 UTC to 20 at 06 UTC
Wind 5 kt from the North/Northeast
Visibility 10 km or more
Broken clouds at a height of 1200 ft
Temporary
from 19 at 06 UTC to 19 at 15 UTC
Broken clouds at a height of 1800 ft
Becoming
from 19 at 22 UTC to 19 at 24 UTC
Broken clouds at a height of 800 ft
Probability 40%
from 20 at 00 UTC to 20 at 06 UTC
Visibility: 0500 m
at a height of 200 ft
fog

TAF: ENGM 1906/2006 03005KT 9999 BKN012 TEMPO 1906/1915 BKN018 BECMG 1922/1924 BKN008 PROB40 2000/2006 0500 FG VV002

Weather observations and forecasts of more than 4000 airports (METAR and TAF reports).

The available stations are represented by yellow and red dots on the map.

Hover mouse over dot to see the name of the station.

Then click to see weather observations and forecasts.

To change the map : click on the green buttons with a black cross to zoom in, on the green button with a dash to zoom out, or on the green arrows for adjacent maps.


METAR-TAF: